sensor_id;sensor_type;location;lat;lon;timestamp;temperature;humidity
20066;DHT22;10193;48.884;9.182;2023-09-12T00:02:00;22.90;59.60
20066;DHT22;10193;48.884;9.182;2023-09-12T00:04:28;22.80;59.60
20066;DHT22;10193;48.884;9.182;2023-09-12T00:06:55;22.80;59.60
20066;DHT22;10193;48.884;9.182;2023-09-12T00:09:21;22.80;59.80
20066;DHT22;10193;48.884;9.182;2023-09-12T00:11:48;22.80;59.80
20066;DHT22;10193;48.884;9.182;2023-09-12T00:14:15;22.70;59.90
20066;DHT22;10193;48.884;9.182;2023-09-12T00:16:41;22.70;59.90
20066;DHT22;10193;48.884;9.182;2023-09-12T00:19:09;22.70;59.90
20066;DHT22;10193;48.884;9.182;2023-09-12T00:21:36;22.60;60.00
20066;DHT22;10193;48.884;9.182;2023-09-12T00:24:03;22.60;60.00
20066;DHT22;10193;48.884;9.182;2023-09-12T00:26:30;22.60;60.10
20066;DHT22;10193;48.884;9.182;2023-09-12T00:28:57;22.60;60.10
20066;DHT22;10193;48.884;9.182;2023-09-12T00:31:23;22.60;60.20
20066;DHT22;10193;48.884;9.182;2023-09-12T00:33:50;22.60;60.30
20066;DHT22;10193;48.884;9.182;2023-09-12T00:36:18;22.50;60.30
20066;DHT22;10193;48.884;9.182;2023-09-12T00:38:43;22.50;60.30
20066;DHT22;10193;48.884;9.182;2023-09-12T00:41:10;22.50;60.30
20066;DHT22;10193;48.884;9.182;2023-09-12T00:43:37;22.50;60.40
20066;DHT22;10193;48.884;9.182;2023-09-12T00:46:03;22.50;60.40
20066;DHT22;10193;48.884;9.182;2023-09-12T00:48:30;22.40;60.40
20066;DHT22;10193;48.884;9.182;2023-09-12T00:50:58;22.40;60.60
20066;DHT22;10193;48.884;9.182;2023-09-12T00:53:27;22.40;61.40
20066;DHT22;10193;48.884;9.182;2023-09-12T00:55:57;22.30;60.60
20066;DHT22;10193;48.884;9.182;2023-09-12T00:58:25;22.30;60.70
20066;DHT22;10193;48.884;9.182;2023-09-12T01:00:53;22.30;60.80
20066;DHT22;10193;48.884;9.182;2023-09-12T01:03:20;22.30;60.90
20066;DHT22;10193;48.884;9.182;2023-09-12T01:05:47;22.30;61.00
20066;DHT22;10193;48.884;9.182;2023-09-12T01:08:15;22.20;61.00
20066;DHT22;10193;48.884;9.182;2023-09-12T01:10:43;22.20;61.20
20066;DHT22;10193;48.884;9.182;2023-09-12T01:13:11;22.20;61.20
20066;DHT22;10193;48.884;9.182;2023-09-12T01:15:38;22.20;61.30
20066;DHT22;10193;48.884;9.182;2023-09-12T01:18:05;22.10;61.40
20066;DHT22;10193;48.884;9.182;2023-09-12T01:20:34;22.10;61.50
20066;DHT22;10193;48.884;9.182;2023-09-12T01:23:13;22.10;61.70
20066;DHT22;10193;48.884;9.182;2023-09-12T01:26:07;22.00;62.10
20066;DHT22;10193;48.884;9.182;2023-09-12T01:28:40;22.00;62.70
20066;DHT22;10193;48.884;9.182;2023-09-12T01:31:09;22.00;61.90
20066;DHT22;10193;48.884;9.182;2023-09-12T01:33:36;22.00;62.00
20066;DHT22;10193;48.884;9.182;2023-09-12T01:36:03;22.00;62.00
20066;DHT22;10193;48.884;9.182;2023-09-12T01:38:30;22.00;62.20
20066;DHT22;10193;48.884;9.182;2023-09-12T01:40:57;22.00;62.20
20066;DHT22;10193;48.884;9.182;2023-09-12T01:43:25;21.90;62.20
20066;DHT22;10193;48.884;9.182;2023-09-12T01:45:55;21.90;62.40
20066;DHT22;10193;48.884;9.182;2023-09-12T01:48:26;21.90;62.50
20066;DHT22;10193;48.884;9.182;2023-09-12T01:50:58;21.90;62.60
20066;DHT22;10193;48.884;9.182;2023-09-12T01:53:26;21.90;62.50
20066;DHT22;10193;48.884;9.182;2023-09-12T01:55:53;21.90;62.60
20066;DHT22;10193;48.884;9.182;2023-09-12T01:58:21;21.90;62.70
20066;DHT22;10193;48.884;9.182;2023-09-12T02:00:47;21.90;62.80
20066;DHT22;10193;48.884;9.182;2023-09-12T02:03:15;21.90;62.80
20066;DHT22;10193;48.884;9.182;2023-09-12T02:05:42;21.80;62.70
20066;DHT22;10193;48.884;9.182;2023-09-12T02:08:09;21.80;62.80
20066;DHT22;10193;48.884;9.182;2023-09-12T02:10:35;21.80;62.70
20066;DHT22;10193;48.884;9.182;2023-09-12T02:13:02;21.80;62.70
20066;DHT22;10193;48.884;9.182;2023-09-12T02:15:29;21.80;62.70
20066;DHT22;10193;48.884;9.182;2023-09-12T02:17:55;21.70;62.70
20066;DHT22;10193;48.884;9.182;2023-09-12T02:20:23;21.70;62.70
20066;DHT22;10193;48.884;9.182;2023-09-12T02:22:50;21.70;62.80
20066;DHT22;10193;48.884;9.182;2023-09-12T02:25:17;21.60;62.70
20066;DHT22;10193;48.884;9.182;2023-09-12T02:27:43;21.60;62.80
20066;DHT22;10193;48.884;9.182;2023-09-12T02:30:10;21.50;62.80
20066;DHT22;10193;48.884;9.182;2023-09-12T02:32:37;21.50;63.00
20066;DHT22;10193;48.884;9.182;2023-09-12T02:35:04;21.50;63.00
20066;DHT22;10193;48.884;9.182;2023-09-12T02:37:32;21.40;63.00
20066;DHT22;10193;48.884;9.182;2023-09-12T02:39:59;21.40;63.10
20066;DHT22;10193;48.884;9.182;2023-09-12T02:42:25;21.40;63.20
20066;DHT22;10193;48.884;9.182;2023-09-12T02:44:52;21.30;63.20
20066;DHT22;10193;48.884;9.182;2023-09-12T02:47:19;21.30;63.30
20066;DHT22;10193;48.884;9.182;2023-09-12T02:49:45;21.30;63.40
20066;DHT22;10193;48.884;9.182;2023-09-12T02:52:12;21.30;63.40
20066;DHT22;10193;48.884;9.182;2023-09-12T02:54:40;21.20;63.40
20066;DHT22;10193;48.884;9.182;2023-09-12T02:57:07;21.20;63.60
20066;DHT22;10193;48.884;9.182;2023-09-12T02:59:33;21.20;63.70
20066;DHT22;10193;48.884;9.182;2023-09-12T03:02:00;21.10;63.80
20066;DHT22;10193;48.884;9.182;2023-09-12T03:04:27;21.10;63.90
20066;DHT22;10193;48.884;9.182;2023-09-12T03:06:53;21.10;64.20
20066;DHT22;10193;48.884;9.182;2023-09-12T03:09:20;21.10;64.20
20066;DHT22;10193;48.884;9.182;2023-09-12T03:11:49;21.10;64.30
20066;DHT22;10193;48.884;9.182;2023-09-12T03:14:16;21.10;64.30
20066;DHT22;10193;48.884;9.182;2023-09-12T03:16:42;21.10;64.30
20066;DHT22;10193;48.884;9.182;2023-09-12T03:19:09;21.10;64.40
20066;DHT22;10193;48.884;9.182;2023-09-12T03:21:35;21.00;64.40
20066;DHT22;10193;48.884;9.182;2023-09-12T03:24:02;21.10;64.50
20066;DHT22;10193;48.884;9.182;2023-09-12T03:26:29;21.00;64.50
20066;DHT22;10193;48.884;9.182;2023-09-12T03:28:57;21.00;64.50
20066;DHT22;10193;48.884;9.182;2023-09-12T03:31:24;21.00;64.50
20066;DHT22;10193;48.884;9.182;2023-09-12T03:33:51;20.90;64.40
20066;DHT22;10193;48.884;9.182;2023-09-12T03:36:18;20.90;64.50
20066;DHT22;10193;48.884;9.182;2023-09-12T03:38:44;20.90;64.50
20066;DHT22;10193;48.884;9.182;2023-09-12T03:41:11;20.90;64.60
20066;DHT22;10193;48.884;9.182;2023-09-12T03:43:38;20.90;64.60
20066;DHT22;10193;48.884;9.182;2023-09-12T03:46:06;20.80;64.60
20066;DHT22;10193;48.884;9.182;2023-09-12T03:48:33;20.80;64.80
20066;DHT22;10193;48.884;9.182;2023-09-12T03:51:02;20.80;64.90
20066;DHT22;10193;48.884;9.182;2023-09-12T03:53:29;20.80;65.10
20066;DHT22;10193;48.884;9.182;2023-09-12T03:55:57;20.80;65.20
20066;DHT22;10193;48.884;9.182;2023-09-12T03:58:23;20.80;65.40
20066;DHT22;10193;48.884;9.182;2023-09-12T04:00:50;20.70;65.40
20066;DHT22;10193;48.884;9.182;2023-09-12T04:03:18;20.80;65.60
20066;DHT22;10193;48.884;9.182;2023-09-12T04:05:46;20.80;65.70
20066;DHT22;10193;48.884;9.182;2023-09-12T04:08:13;20.70;65.60
20066;DHT22;10193;48.884;9.182;2023-09-12T04:10:39;20.80;65.80
20066;DHT22;10193;48.884;9.182;2023-09-12T04:13:06;20.80;65.90
20066;DHT22;10193;48.884;9.182;2023-09-12T04:15:33;20.80;66.00
20066;DHT22;10193;48.884;9.182;2023-09-12T04:17:59;20.80;65.90
20066;DHT22;10193;48.884;9.182;2023-09-12T04:20:27;20.80;65.90
20066;DHT22;10193;48.884;9.182;2023-09-12T04:22:54;20.80;65.90
20066;DHT22;10193;48.884;9.182;2023-09-12T04:25:21;20.80;65.90
20066;DHT22;10193;48.884;9.182;2023-09-12T04:27:47;20.80;65.90
20066;DHT22;10193;48.884;9.182;2023-09-12T04:30:14;20.90;66.00
20066;DHT22;10193;48.884;9.182;2023-09-12T04:32:41;20.90;65.90
20066;DHT22;10193;48.884;9.182;2023-09-12T04:35:07;20.90;66.00
20066;DHT22;10193;48.884;9.182;2023-09-12T04:37:36;20.80;65.90
20066;DHT22;10193;48.884;9.182;2023-09-12T04:40:03;20.90;65.90
20066;DHT22;10193;48.884;9.182;2023-09-12T04:42:31;20.80;65.90
20066;DHT22;10193;48.884;9.182;2023-09-12T04:44:58;20.90;66.00
20066;DHT22;10193;48.884;9.182;2023-09-12T04:47:25;20.80;66.00
20066;DHT22;10193;48.884;9.182;2023-09-12T04:49:53;20.80;66.00
20066;DHT22;10193;48.884;9.182;2023-09-12T04:52:19;20.80;66.00
20066;DHT22;10193;48.884;9.182;2023-09-12T04:54:47;20.80;66.10
20066;DHT22;10193;48.884;9.182;2023-09-12T04:57:14;20.80;66.20
20066;DHT22;10193;48.884;9.182;2023-09-12T04:59:41;20.80;66.20
20066;DHT22;10193;48.884;9.182;2023-09-12T05:02:07;20.80;66.30
20066;DHT22;10193;48.884;9.182;2023-09-12T05:04:34;20.90;66.60
20066;DHT22;10193;48.884;9.182;2023-09-12T05:07:00;20.90;66.60
20066;DHT22;10193;48.884;9.182;2023-09-12T05:09:27;20.90;66.60
20066;DHT22;10193;48.884;9.182;2023-09-12T05:11:55;20.90;66.60
20066;DHT22;10193;48.884;9.182;2023-09-12T05:14:22;20.90;66.60
20066;DHT22;10193;48.884;9.182;2023-09-12T05:16:48;20.90;66.70
20066;DHT22;10193;48.884;9.182;2023-09-12T05:19:15;20.90;66.70
20066;DHT22;10193;48.884;9.182;2023-09-12T05:21:42;21.00;66.80
20066;DHT22;10193;48.884;9.182;2023-09-12T05:24:08;21.00;66.90
20066;DHT22;10193;48.884;9.182;2023-09-12T05:26:35;21.00;66.90
20066;DHT22;10193;48.884;9.182;2023-09-12T05:29:03;21.10;67.10
20066;DHT22;10193;48.884;9.182;2023-09-12T05:31:31;21.10;67.10
20066;DHT22;10193;48.884;9.182;2023-09-12T05:33:58;21.10;67.10
20066;DHT22;10193;48.884;9.182;2023-09-12T05:36:24;21.20;67.20
20066;DHT22;10193;48.884;9.182;2023-09-12T05:38:50;21.20;67.20
20066;DHT22;10193;48.884;9.182;2023-09-12T05:41:17;21.30;67.30
20066;DHT22;10193;48.884;9.182;2023-09-12T05:43:43;21.30;67.50
20066;DHT22;10193;48.884;9.182;2023-09-12T05:46:11;21.40;67.80
20066;DHT22;10193;48.884;9.182;2023-09-12T05:48:38;21.50;68.20
20066;DHT22;10193;48.884;9.182;2023-09-12T05:51:04;21.60;68.50
20066;DHT22;10193;48.884;9.182;2023-09-12T05:53:31;21.80;68.90
20066;DHT22;10193;48.884;9.182;2023-09-12T05:55:58;22.00;69.10
20066;DHT22;10193;48.884;9.182;2023-09-12T05:58:24;22.30;69.20
20066;DHT22;10193;48.884;9.182;2023-09-12T06:00:51;22.60;68.90
20066;DHT22;10193;48.884;9.182;2023-09-12T06:03:19;22.90;68.40
20066;DHT22;10193;48.884;9.182;2023-09-12T06:05:45;23.10;67.80
20066;DHT22;10193;48.884;9.182;2023-09-12T06:08:12;23.30;67.60
20066;DHT22;10193;48.884;9.182;2023-09-12T06:10:39;23.40;67.20
20066;DHT22;10193;48.884;9.182;2023-09-12T06:13:05;23.60;66.90
20066;DHT22;10193;48.884;9.182;2023-09-12T06:15:32;23.70;66.60
20066;DHT22;10193;48.884;9.182;2023-09-12T06:17:59;23.80;66.90
20066;DHT22;10193;48.884;9.182;2023-09-12T06:20:27;24.00;67.20
20066;DHT22;10193;48.884;9.182;2023-09-12T06:22:53;24.10;66.80
20066;DHT22;10193;48.884;9.182;2023-09-12T06:25:20;24.30;67.00
20066;DHT22;10193;48.884;9.182;2023-09-12T06:27:47;24.50;66.80
20066;DHT22;10193;48.884;9.182;2023-09-12T06:30:14;24.60;66.40
20066;DHT22;10193;48.884;9.182;2023-09-12T06:32:41;24.70;65.80
20066;DHT22;10193;48.884;9.182;2023-09-12T06:35:08;24.70;65.20
20066;DHT22;10193;48.884;9.182;2023-09-12T06:37:37;24.80;64.80
20066;DHT22;10193;48.884;9.182;2023-09-12T06:40:05;24.80;64.60
20066;DHT22;10193;48.884;9.182;2023-09-12T06:42:32;24.80;64.50
20066;DHT22;10193;48.884;9.182;2023-09-12T06:44:59;24.80;64.50
20066;DHT22;10193;48.884;9.182;2023-09-12T06:47:25;24.70;64.30
20066;DHT22;10193;48.884;9.182;2023-09-12T06:49:52;24.70;64.30
20066;DHT22;10193;48.884;9.182;2023-09-12T06:52:19;24.70;64.20
20066;DHT22;10193;48.884;9.182;2023-09-12T06:54:47;24.70;64.00
20066;DHT22;10193;48.884;9.182;2023-09-12T06:57:13;24.70;64.10
20066;DHT22;10193;48.884;9.182;2023-09-12T06:59:41;24.60;64.00
20066;DHT22;10193;48.884;9.182;2023-09-12T07:02:08;24.60;64.10
20066;DHT22;10193;48.884;9.182;2023-09-12T07:04:35;24.60;64.30
20066;DHT22;10193;48.884;9.182;2023-09-12T07:07:02;24.60;64.40
20066;DHT22;10193;48.884;9.182;2023-09-12T07:09:29;24.60;64.50
20066;DHT22;10193;48.884;9.182;2023-09-12T07:11:57;24.60;64.30
20066;DHT22;10193;48.884;9.182;2023-09-12T07:14:24;24.60;64.40
20066;DHT22;10193;48.884;9.182;2023-09-12T07:16:51;24.70;64.60
20066;DHT22;10193;48.884;9.182;2023-09-12T07:19:17;24.70;64.70
20066;DHT22;10193;48.884;9.182;2023-09-12T07:21:44;24.70;64.70
20066;DHT22;10193;48.884;9.182;2023-09-12T07:24:11;24.70;64.80
20066;DHT22;10193;48.884;9.182;2023-09-12T07:26:38;24.70;64.70
20066;DHT22;10193;48.884;9.182;2023-09-12T07:29:06;24.80;64.70
20066;DHT22;10193;48.884;9.182;2023-09-12T07:31:33;24.90;64.80
20066;DHT22;10193;48.884;9.182;2023-09-12T07:33:59;24.90;64.70
20066;DHT22;10193;48.884;9.182;2023-09-12T07:36:26;24.90;64.60
20066;DHT22;10193;48.884;9.182;2023-09-12T07:38:53;24.90;64.40
20066;DHT22;10193;48.884;9.182;2023-09-12T07:41:19;24.90;64.40
20066;DHT22;10193;48.884;9.182;2023-09-12T07:43:46;24.90;64.40
20066;DHT22;10193;48.884;9.182;2023-09-12T07:46:14;25.00;64.50
20066;DHT22;10193;48.884;9.182;2023-09-12T07:48:40;25.00;64.50
20066;DHT22;10193;48.884;9.182;2023-09-12T07:51:13;24.90;64.50
20066;DHT22;10193;48.884;9.182;2023-09-12T07:53:40;25.00;64.50
20066;DHT22;10193;48.884;9.182;2023-09-12T07:56:08;25.00;64.70
20066;DHT22;10193;48.884;9.182;2023-09-12T07:58:36;25.00;64.90
20066;DHT22;10193;48.884;9.182;2023-09-12T08:01:05;25.10;65.20
20066;DHT22;10193;48.884;9.182;2023-09-12T08:03:34;25.20;65.30
20066;DHT22;10193;48.884;9.182;2023-09-12T08:06:01;25.30;65.20
20066;DHT22;10193;48.884;9.182;2023-09-12T08:08:29;25.50;65.10
20066;DHT22;10193;48.884;9.182;2023-09-12T08:10:55;25.50;65.00
20066;DHT22;10193;48.884;9.182;2023-09-12T08:13:22;25.70;65.20
20066;DHT22;10193;48.884;9.182;2023-09-12T08:15:49;25.80;65.30
20066;DHT22;10193;48.884;9.182;2023-09-12T08:18:15;25.90;64.80
20066;DHT22;10193;48.884;9.182;2023-09-12T08:20:43;26.00;64.70
20066;DHT22;10193;48.884;9.182;2023-09-12T08:23:10;26.10;64.30
20066;DHT22;10193;48.884;9.182;2023-09-12T08:25:37;26.10;64.00
20066;DHT22;10193;48.884;9.182;2023-09-12T08:28:04;26.20;63.50
20066;DHT22;10193;48.884;9.182;2023-09-12T08:30:31;26.20;63.20
20066;DHT22;10193;48.884;9.182;2023-09-12T08:32:58;26.30;63.40
20066;DHT22;10193;48.884;9.182;2023-09-12T08:35:28;26.30;63.20
20066;DHT22;10193;48.884;9.182;2023-09-12T08:37:56;26.30;63.30
20066;DHT22;10193;48.884;9.182;2023-09-12T08:40:22;26.40;63.40
20066;DHT22;10193;48.884;9.182;2023-09-12T08:42:51;26.40;63.30
20066;DHT22;10193;48.884;9.182;2023-09-12T08:45:19;26.40;63.30
20066;DHT22;10193;48.884;9.182;2023-09-12T08:47:53;26.50;63.10
20066;DHT22;10193;48.884;9.182;2023-09-12T08:50:20;26.50;62.70
20066;DHT22;10193;48.884;9.182;2023-09-12T08:52:48;26.60;62.90
20066;DHT22;10193;48.884;9.182;2023-09-12T08:55:17;26.60;62.70
20066;DHT22;10193;48.884;9.182;2023-09-12T08:57:47;26.70;62.50
20066;DHT22;10193;48.884;9.182;2023-09-12T09:00:16;26.70;62.30
20066;DHT22;10193;48.884;9.182;2023-09-12T09:02:43;26.80;62.30
20066;DHT22;10193;48.884;9.182;2023-09-12T09:05:11;26.90;62.40
20066;DHT22;10193;48.884;9.182;2023-09-12T09:07:38;26.90;62.10
20066;DHT22;10193;48.884;9.182;2023-09-12T09:10:07;27.00;62.00
20066;DHT22;10193;48.884;9.182;2023-09-12T09:12:35;27.10;61.80
20066;DHT22;10193;48.884;9.182;2023-09-12T09:15:20;27.20;61.40
20066;DHT22;10193;48.884;9.182;2023-09-12T09:17:47;27.20;60.60
20066;DHT22;10193;48.884;9.182;2023-09-12T09:20:21;27.30;60.90
20066;DHT22;10193;48.884;9.182;2023-09-12T09:22:59;27.30;60.50
20066;DHT22;10193;48.884;9.182;2023-09-12T09:25:26;27.40;60.20
20066;DHT22;10193;48.884;9.182;2023-09-12T09:27:54;27.50;60.40
20066;DHT22;10193;48.884;9.182;2023-09-12T09:30:41;27.50;60.40
20066;DHT22;10193;48.884;9.182;2023-09-12T09:33:08;27.60;60.20
20066;DHT22;10193;48.884;9.182;2023-09-12T09:35:35;27.70;60.30
20066;DHT22;10193;48.884;9.182;2023-09-12T09:38:03;27.70;59.80
20066;DHT22;10193;48.884;9.182;2023-09-12T09:40:30;27.80;59.80
20066;DHT22;10193;48.884;9.182;2023-09-12T09:42:59;27.80;59.60
20066;DHT22;10193;48.884;9.182;2023-09-12T09:45:26;27.90;59.30
20066;DHT22;10193;48.884;9.182;2023-09-12T09:47:56;28.00;59.30
20066;DHT22;10193;48.884;9.182;2023-09-12T09:50:23;28.00;59.00
20066;DHT22;10193;48.884;9.182;2023-09-12T09:52:54;28.10;58.90
20066;DHT22;10193;48.884;9.182;2023-09-12T09:55:21;28.10;58.80
20066;DHT22;10193;48.884;9.182;2023-09-12T09:57:47;28.20;58.80
20066;DHT22;10193;48.884;9.182;2023-09-12T10:00:15;28.20;58.60
20066;DHT22;10193;48.884;9.182;2023-09-12T10:02:44;28.30;58.60
20066;DHT22;10193;48.884;9.182;2023-09-12T10:05:13;28.30;58.60
20066;DHT22;10193;48.884;9.182;2023-09-12T10:07:43;28.40;58.70
20066;DHT22;10193;48.884;9.182;2023-09-12T10:10:12;28.40;58.60
20066;DHT22;10193;48.884;9.182;2023-09-12T10:12:43;28.50;58.30
20066;DHT22;10193;48.884;9.182;2023-09-12T10:15:12;28.50;58.20
20066;DHT22;10193;48.884;9.182;2023-09-12T10:17:43;28.60;58.30
20066;DHT22;10193;48.884;9.182;2023-09-12T10:20:16;28.70;57.90
20066;DHT22;10193;48.884;9.182;2023-09-12T10:22:53;28.80;57.70
20066;DHT22;10193;48.884;9.182;2023-09-12T10:25:23;28.80;57.20
20066;DHT22;10193;48.884;9.182;2023-09-12T10:27:50;28.90;57.60
20066;DHT22;10193;48.884;9.182;2023-09-12T10:30:18;29.00;57.40
20066;DHT22;10193;48.884;9.182;2023-09-12T10:32:46;29.00;57.20
20066;DHT22;10193;48.884;9.182;2023-09-12T10:35:14;29.10;57.10
20066;DHT22;10193;48.884;9.182;2023-09-12T10:37:44;29.20;57.00
20066;DHT22;10193;48.884;9.182;2023-09-12T10:40:13;29.20;56.70
20066;DHT22;10193;48.884;9.182;2023-09-12T10:42:41;29.30;56.70
20066;DHT22;10193;48.884;9.182;2023-09-12T10:45:09;29.40;56.40
20066;DHT22;10193;48.884;9.182;2023-09-12T10:47:37;29.50;56.20
20066;DHT22;10193;48.884;9.182;2023-09-12T10:50:06;29.50;56.30
20066;DHT22;10193;48.884;9.182;2023-09-12T10:52:32;29.60;56.00
20066;DHT22;10193;48.884;9.182;2023-09-12T10:55:04;29.70;55.90
20066;DHT22;10193;48.884;9.182;2023-09-12T10:57:31;29.70;55.70
20066;DHT22;10193;48.884;9.182;2023-09-12T11:00:12;29.80;55.70
20066;DHT22;10193;48.884;9.182;2023-09-12T11:02:39;29.80;54.90
20066;DHT22;10193;48.884;9.182;2023-09-12T11:05:35;29.90;55.30
20066;DHT22;10193;48.884;9.182;2023-09-12T11:08:02;30.00;55.10
20066;DHT22;10193;48.884;9.182;2023-09-12T11:10:29;30.00;55.00
20066;DHT22;10193;48.884;9.182;2023-09-12T11:12:58;30.10;55.00
20066;DHT22;10193;48.884;9.182;2023-09-12T11:15:26;30.20;54.80
20066;DHT22;10193;48.884;9.182;2023-09-12T11:18:01;30.20;54.40
20066;DHT22;10193;48.884;9.182;2023-09-12T11:20:51;30.30;53.60
20066;DHT22;10193;48.884;9.182;2023-09-12T11:23:19;30.30;53.40
20066;DHT22;10193;48.884;9.182;2023-09-12T11:25:46;30.40;53.70
20066;DHT22;10193;48.884;9.182;2023-09-12T11:28:13;30.50;53.50
20066;DHT22;10193;48.884;9.182;2023-09-12T11:30:55;30.50;53.40
20066;DHT22;10193;48.884;9.182;2023-09-12T11:33:23;30.50;52.60
20066;DHT22;10193;48.884;9.182;2023-09-12T11:35:53;30.50;53.00
20066;DHT22;10193;48.884;9.182;2023-09-12T11:38:27;30.60;52.70
20066;DHT22;10193;48.884;9.182;2023-09-12T11:40:55;30.60;52.30
20066;DHT22;10193;48.884;9.182;2023-09-12T11:43:23;30.70;52.40
20066;DHT22;10193;48.884;9.182;2023-09-12T11:45:51;30.70;52.20
20066;DHT22;10193;48.884;9.182;2023-09-12T11:48:18;30.70;52.20
20066;DHT22;10193;48.884;9.182;2023-09-12T11:50:50;30.80;52.10
20066;DHT22;10193;48.884;9.182;2023-09-12T11:53:21;30.80;51.60
20066;DHT22;10193;48.884;9.182;2023-09-12T11:55:52;30.80;51.40
20066;DHT22;10193;48.884;9.182;2023-09-12T11:58:20;31.00;51.40
20066;DHT22;10193;48.884;9.182;2023-09-12T12:00:48;31.00;51.40
20066;DHT22;10193;48.884;9.182;2023-09-12T12:03:17;31.00;51.10
20066;DHT22;10193;48.884;9.182;2023-09-12T12:05:44;31.00;50.80
20066;DHT22;10193;48.884;9.182;2023-09-12T12:08:11;31.10;50.80
20066;DHT22;10193;48.884;9.182;2023-09-12T12:10:39;31.20;51.50
20066;DHT22;10193;48.884;9.182;2023-09-12T12:13:06;31.20;50.80
20066;DHT22;10193;48.884;9.182;2023-09-12T12:15:37;31.20;50.80
20066;DHT22;10193;48.884;9.182;2023-09-12T12:18:04;31.30;50.60
20066;DHT22;10193;48.884;9.182;2023-09-12T12:20:31;31.40;50.50
20066;DHT22;10193;48.884;9.182;2023-09-12T12:22:57;31.50;50.40
20066;DHT22;10193;48.884;9.182;2023-09-12T12:25:24;31.60;50.30
20066;DHT22;10193;48.884;9.182;2023-09-12T12:27:52;31.60;50.10
20066;DHT22;10193;48.884;9.182;2023-09-12T12:30:19;31.70;49.90
20066;DHT22;10193;48.884;9.182;2023-09-12T12:32:46;31.80;49.80
20066;DHT22;10193;48.884;9.182;2023-09-12T12:35:17;31.90;49.80
20066;DHT22;10193;48.884;9.182;2023-09-12T12:37:45;31.90;49.40
20066;DHT22;10193;48.884;9.182;2023-09-12T12:40:13;32.00;49.40
20066;DHT22;10193;48.884;9.182;2023-09-12T12:42:40;32.10;49.40
20066;DHT22;10193;48.884;9.182;2023-09-12T12:45:13;32.10;48.90
20066;DHT22;10193;48.884;9.182;2023-09-12T12:47:40;32.10;48.30
20066;DHT22;10193;48.884;9.182;2023-09-12T12:50:11;32.30;48.50
20066;DHT22;10193;48.884;9.182;2023-09-12T12:52:38;32.30;47.90
20066;DHT22;10193;48.884;9.182;2023-09-12T12:55:05;32.30;47.90
20066;DHT22;10193;48.884;9.182;2023-09-12T12:57:36;32.30;47.70
20066;DHT22;10193;48.884;9.182;2023-09-12T13:00:06;32.30;48.30
20066;DHT22;10193;48.884;9.182;2023-09-12T13:02:34;32.30;47.50
20066;DHT22;10193;48.884;9.182;2023-09-12T13:05:01;32.40;47.40
20066;DHT22;10193;48.884;9.182;2023-09-12T13:07:28;32.40;47.30
20066;DHT22;10193;48.884;9.182;2023-09-12T13:09:54;32.50;47.20
20066;DHT22;10193;48.884;9.182;2023-09-12T13:12:21;32.50;47.00
20066;DHT22;10193;48.884;9.182;2023-09-12T13:14:48;32.50;46.90
20066;DHT22;10193;48.884;9.182;2023-09-12T13:17:14;32.50;46.90
20066;DHT22;10193;48.884;9.182;2023-09-12T13:19:42;32.60;46.90
20066;DHT22;10193;48.884;9.182;2023-09-12T13:22:09;32.60;46.90
20066;DHT22;10193;48.884;9.182;2023-09-12T13:24:36;32.70;46.90
20066;DHT22;10193;48.884;9.182;2023-09-12T13:27:03;32.70;46.70
20066;DHT22;10193;48.884;9.182;2023-09-12T13:29:29;32.70;46.50
20066;DHT22;10193;48.884;9.182;2023-09-12T13:31:56;32.80;46.40
20066;DHT22;10193;48.884;9.182;2023-09-12T13:34:23;32.80;46.30
20066;DHT22;10193;48.884;9.182;2023-09-12T13:36:51;32.80;46.30
20066;DHT22;10193;48.884;9.182;2023-09-12T13:39:17;32.80;46.10
20066;DHT22;10193;48.884;9.182;2023-09-12T13:41:44;32.80;46.20
20066;DHT22;10193;48.884;9.182;2023-09-12T13:44:11;32.80;46.00
20066;DHT22;10193;48.884;9.182;2023-09-12T13:46:37;32.80;45.80
20066;DHT22;10193;48.884;9.182;2023-09-12T13:49:04;32.80;45.80
20066;DHT22;10193;48.884;9.182;2023-09-12T13:51:31;32.70;45.70
20066;DHT22;10193;48.884;9.182;2023-09-12T13:53:59;32.70;45.60
20066;DHT22;10193;48.884;9.182;2023-09-12T13:56:26;32.70;45.60
20066;DHT22;10193;48.884;9.182;2023-09-12T13:58:52;32.60;45.70
20066;DHT22;10193;48.884;9.182;2023-09-12T14:01:19;32.60;45.80
20066;DHT22;10193;48.884;9.182;2023-09-12T14:03:46;32.60;45.80
20066;DHT22;10193;48.884;9.182;2023-09-12T14:06:13;32.60;45.90
20066;DHT22;10193;48.884;9.182;2023-09-12T14:08:39;32.60;45.90
20066;DHT22;10193;48.884;9.182;2023-09-12T14:11:07;32.50;45.90
20066;DHT22;10193;48.884;9.182;2023-09-12T14:13:34;32.50;46.00
20066;DHT22;10193;48.884;9.182;2023-09-12T14:16:01;32.50;45.90
20066;DHT22;10193;48.884;9.182;2023-09-12T14:18:28;32.40;45.70
20066;DHT22;10193;48.884;9.182;2023-09-12T14:20:54;32.40;45.80
20066;DHT22;10193;48.884;9.182;2023-09-12T14:23:21;32.40;45.90
20066;DHT22;10193;48.884;9.182;2023-09-12T14:25:48;32.40;45.80
20066;DHT22;10193;48.884;9.182;2023-09-12T14:28:15;32.30;45.60
20066;DHT22;10193;48.884;9.182;2023-09-12T14:30:42;32.30;45.60
20066;DHT22;10193;48.884;9.182;2023-09-12T14:33:10;32.30;45.50
20066;DHT22;10193;48.884;9.182;2023-09-12T14:35:39;32.30;45.60
20066;DHT22;10193;48.884;9.182;2023-09-12T14:38:06;32.30;45.50
20066;DHT22;10193;48.884;9.182;2023-09-12T14:40:32;32.30;45.40
20066;DHT22;10193;48.884;9.182;2023-09-12T14:42:59;32.30;45.20
20066;DHT22;10193;48.884;9.182;2023-09-12T14:45:28;32.30;45.10
20066;DHT22;10193;48.884;9.182;2023-09-12T14:47:56;32.30;45.00
20066;DHT22;10193;48.884;9.182;2023-09-12T14:50:23;32.30;45.10
20066;DHT22;10193;48.884;9.182;2023-09-12T14:52:51;32.30;45.10
20066;DHT22;10193;48.884;9.182;2023-09-12T14:55:17;32.30;45.10
20066;DHT22;10193;48.884;9.182;2023-09-12T14:57:44;32.30;45.10
20066;DHT22;10193;48.884;9.182;2023-09-12T15:00:11;32.30;45.10
20066;DHT22;10193;48.884;9.182;2023-09-12T15:02:39;32.30;45.20
20066;DHT22;10193;48.884;9.182;2023-09-12T15:05:07;32.20;45.10
20066;DHT22;10193;48.884;9.182;2023-09-12T15:07:34;32.30;45.30
20066;DHT22;10193;48.884;9.182;2023-09-12T15:10:03;32.30;45.20
20066;DHT22;10193;48.884;9.182;2023-09-12T15:12:30;32.30;45.30
20066;DHT22;10193;48.884;9.182;2023-09-12T15:14:56;32.30;45.30
20066;DHT22;10193;48.884;9.182;2023-09-12T15:17:23;32.40;45.20
20066;DHT22;10193;48.884;9.182;2023-09-12T15:19:51;32.40;45.20
20066;DHT22;10193;48.884;9.182;2023-09-12T15:22:17;32.50;45.10
20066;DHT22;10193;48.884;9.182;2023-09-12T15:24:44;32.50;44.80
20066;DHT22;10193;48.884;9.182;2023-09-12T15:27:11;32.50;44.80
20066;DHT22;10193;48.884;9.182;2023-09-12T15:29:37;32.60;44.80
20066;DHT22;10193;48.884;9.182;2023-09-12T15:32:05;32.60;44.70
20066;DHT22;10193;48.884;9.182;2023-09-12T15:34:32;32.60;44.50